Time;durP1;ratioP1;P1;durP2;ratioP2;P2;SDS_P1;SDS_P2;PMS_P1;PMS_P2;Temp;Humidity;BMP_temperature;BMP_pressure;BME280_temperature;BME280_humidity;BME280_pressure;Samples;Min_cycle;Max_cycle;Signal;HPM_P1;HPM_P2
2024/04/13 00:02:17;;;;;;;22.97;14.57;;;15.60;99.90;;;;;;795950;173;26443;-79
2024/04/13 00:04:44;;;;;;;21.77;11.33;;;15.60;99.90;;;;;;795102;179;26480;-79
2024/04/13 00:07:10;;;;;;;21.17;11.23;;;15.50;99.90;;;;;;795748;179;26480;-78
2024/04/13 00:09:37;;;;;;;15.23;10.20;;;15.40;99.90;;;;;;795162;179;26460;-77
2024/04/13 00:12:04;;;;;;;21.67;11.13;;;15.40;99.90;;;;;;791418;180;26462;-77
2024/04/13 00:14:33;;;;;;;18.90;11.23;;;15.40;99.90;;;;;;794504;180;26456;-79
2024/04/13 00:16:58;;;;;;;40.30;19.53;;;15.40;99.90;;;;;;791732;180;26458;-77
2024/04/13 00:19:24;;;;;;;19.30;11.57;;;15.30;99.90;;;;;;794424;179;26452;-78
2024/04/13 00:21:51;;;;;;;15.60;9.27;;;15.30;99.90;;;;;;790620;182;26462;-78
2024/04/13 00:24:17;;;;;;;14.53;9.33;;;15.30;99.90;;;;;;808893;177;26509;-76
2024/04/13 00:26:44;;;;;;;16.70;9.47;;;15.30;99.90;;;;;;788439;182;26546;-78
2024/04/13 00:29:11;;;;;;;15.17;9.40;;;15.20;99.90;;;;;;813286;175;26407;-78
2024/04/13 00:31:37;;;;;;;21.57;9.10;;;15.30;99.90;;;;;;810602;176;26436;-78
2024/04/13 00:34:04;;;;;;;19.20;9.57;;;15.30;99.90;;;;;;806477;177;26462;-78
2024/04/13 00:36:35;;;;;;;14.10;9.17;;;15.20;99.90;;;;;;804840;175;26461;-78
2024/04/13 00:38:57;;;;;;;13.83;8.23;;;15.20;99.90;;;;;;790488;181;26406;-78
2024/04/13 00:41:24;;;;;;;17.37;8.70;;;15.10;99.90;;;;;;811439;172;26465;-78
2024/04/13 00:43:50;;;;;;;15.90;9.50;;;15.10;99.90;;;;;;806282;177;26772;-78
2024/04/13 00:46:23;;;;;;;16.43;8.87;;;15.10;99.90;;;;;;807530;177;26405;-79
2024/04/13 00:48:43;;;;;;;13.70;8.50;;;15.10;99.90;;;;;;787366;180;27683;-78
2024/04/13 00:51:12;;;;;;;13.07;8.70;;;15.00;99.90;;;;;;808646;177;26367;-79
2024/04/13 00:53:37;;;;;;;19.73;9.37;;;15.00;99.90;;;;;;793912;180;26459;-77
2024/04/13 00:56:06;;;;;;;14.90;8.93;;;15.10;99.90;;;;;;806917;174;27060;-77
2024/04/13 00:58:31;;;;;;;14.17;8.53;;;15.10;99.90;;;;;;791213;181;26397;-78
2024/04/13 01:00:57;;;;;;;12.47;8.70;;;15.00;99.90;;;;;;817880;174;26409;-79
2024/04/13 01:03:24;;;;;;;14.17;9.47;;;14.90;99.90;;;;;;806698;177;26413;-78
2024/04/13 01:05:51;;;;;;;17.83;9.07;;;14.80;99.90;;;;;;805209;177;26559;-77
2024/04/13 01:08:19;;;;;;;18.70;9.10;;;14.90;99.90;;;;;;802477;178;26406;-79
2024/04/13 01:10:44;;;;;;;16.53;9.50;;;14.80;99.90;;;;;;789375;181;26396;-79
2024/04/13 01:13:10;;;;;;;13.43;8.77;;;14.60;99.90;;;;;;805121;177;26447;-77
2024/04/13 01:15:38;;;;;;;17.47;9.07;;;14.60;99.90;;;;;;806585;177;26396;-79
2024/04/13 01:18:04;;;;;;;14.17;9.00;;;14.50;99.90;;;;;;790425;178;26444;-79
2024/04/13 01:20:31;;;;;;;16.77;9.90;;;14.50;99.90;;;;;;808124;177;26349;-79
2024/04/13 01:22:57;;;;;;;16.50;10.47;;;14.30;99.90;;;;;;805202;178;26492;-79
2024/04/13 01:25:24;;;;;;;13.43;9.47;;;14.20;99.90;;;;;;806071;178;26416;-79
2024/04/13 01:27:50;;;;;;;14.43;10.10;;;14.20;99.90;;;;;;786624;180;26513;-78
2024/04/13 01:30:17;;;;;;;15.03;9.80;;;14.10;99.90;;;;;;787812;180;26520;-79
2024/04/13 01:32:44;;;;;;;17.07;10.90;;;14.10;99.90;;;;;;806478;177;26444;-79
2024/04/13 01:35:11;;;;;;;16.77;10.77;;;14.10;99.90;;;;;;793529;177;26471;-79
2024/04/13 01:37:38;;;;;;;19.90;11.20;;;14.00;99.90;;;;;;808197;177;26370;-78
2024/04/13 01:40:06;;;;;;;17.23;10.77;;;13.90;99.90;;;;;;805913;174;26933;-78
2024/04/13 01:42:31;;;;;;;17.43;10.67;;;14.00;99.90;;;;;;806147;178;26373;-79
2024/04/13 01:44:58;;;;;;;17.13;10.27;;;14.00;99.90;;;;;;803000;178;26448;-79
2024/04/13 01:47:25;;;;;;;16.33;10.03;;;14.00;99.90;;;;;;807886;178;26388;-79
2024/04/13 01:49:51;;;;;;;15.53;11.23;;;13.90;99.90;;;;;;800082;178;26432;-79
2024/04/13 01:52:20;;;;;;;15.93;11.00;;;13.90;99.90;;;;;;788660;180;26531;-80
2024/04/13 01:54:45;;;;;;;19.87;11.80;;;13.90;99.90;;;;;;804002;179;26475;-77
2024/04/13 01:57:11;;;;;;;14.00;10.17;;;13.90;99.90;;;;;;789941;180;26407;-76
2024/04/13 01:59:38;;;;;;;16.57;10.80;;;13.90;99.90;;;;;;803640;177;27004;-78
2024/04/13 02:02:04;;;;;;;16.17;10.77;;;13.90;99.90;;;;;;789123;177;26453;-77
2024/04/13 02:04:31;;;;;;;18.53;11.10;;;13.90;99.90;;;;;;790445;180;26483;-78
2024/04/13 02:06:58;;;;;;;18.73;10.27;;;13.90;99.90;;;;;;794263;180;26478;-79
2024/04/13 02:09:24;;;;;;;16.57;10.53;;;13.90;99.90;;;;;;789378;181;26470;-77
2024/04/13 02:11:51;;;;;;;16.30;11.47;;;13.90;99.90;;;;;;789490;180;26530;-78
2024/04/13 02:14:18;;;;;;;18.60;10.57;;;13.80;99.90;;;;;;788327;182;26534;-78
2024/04/13 02:16:44;;;;;;;22.30;12.90;;;13.80;99.90;;;;;;786953;180;26462;-78
2024/04/13 02:19:12;;;;;;;17.37;11.80;;;13.70;99.90;;;;;;790914;180;26512;-78
2024/04/13 02:21:37;;;;;;;16.63;10.57;;;13.70;99.90;;;;;;787656;180;26458;-77
2024/04/13 02:24:04;;;;;;;20.47;10.87;;;13.60;99.90;;;;;;787419;180;26524;-77
2024/04/13 02:26:31;;;;;;;18.50;11.70;;;13.60;99.90;;;;;;790135;180;26467;-79
2024/04/13 02:28:58;;;;;;;16.40;11.30;;;13.50;99.90;;;;;;793550;180;26631;-79
2024/04/13 02:31:24;;;;;;;19.00;11.53;;;13.60;99.90;;;;;;793341;179;26452;-79
2024/04/13 02:33:50;;;;;;;22.23;12.07;;;13.60;99.90;;;;;;794571;179;26463;-77
2024/04/13 02:36:17;;;;;;;17.50;11.57;;;13.60;99.90;;;;;;791690;180;26841;-78
2024/04/13 02:38:44;;;;;;;18.07;11.93;;;13.60;99.90;;;;;;791155;180;26453;-79
2024/04/13 02:41:10;;;;;;;21.27;12.10;;;13.60;99.90;;;;;;794761;179;26455;-78
2024/04/13 02:43:37;;;;;;;22.87;12.30;;;13.60;99.90;;;;;;790661;179;27055;-77
2024/04/13 02:46:04;;;;;;;20.40;12.10;;;13.60;99.90;;;;;;794463;179;26474;-77
2024/04/13 02:48:30;;;;;;;22.27;11.70;;;13.60;99.90;;;;;;790680;179;27021;-78
2024/04/13 02:50:57;;;;;;;19.20;12.37;;;13.60;99.90;;;;;;790489;179;26461;-78
2024/04/13 02:53:23;;;;;;;21.00;12.00;;;13.50;99.90;;;;;;794942;179;26481;-78
2024/04/13 02:55:50;;;;;;;19.90;10.97;;;13.60;99.90;;;;;;790588;179;26472;-78
2024/04/13 02:58:17;;;;;;;20.77;11.87;;;13.50;99.90;;;;;;795270;179;26469;-79
2024/04/13 03:00:51;;;;;;;18.40;12.27;;;13.40;99.90;;;;;;789795;182;26489;-77
2024/04/13 03:03:18;;;;;;;19.40;11.90;;;13.40;99.90;;;;;;791087;180;26498;-79
2024/04/13 03:05:44;;;;;;;18.60;12.00;;;13.40;99.90;;;;;;792720;180;26467;-77
2024/04/13 03:08:11;;;;;;;25.00;12.80;;;13.40;99.90;;;;;;792331;179;26475;-78
2024/04/13 03:10:37;;;;;;;18.10;11.27;;;13.30;99.90;;;;;;791062;181;27715;-78
2024/04/13 03:13:05;;;;;;;18.40;11.17;;;13.40;99.90;;;;;;796206;177;26582;-79
2024/04/13 03:15:31;;;;;;;17.13;11.77;;;13.30;99.90;;;;;;793771;176;26468;-78
2024/04/13 03:17:57;;;;;;;22.50;12.27;;;13.30;99.90;;;;;;795456;179;26477;-79
2024/04/13 03:20:25;;;;;;;20.67;11.33;;;13.20;99.90;;;;;;791178;179;26525;-79
2024/04/13 03:22:50;;;;;;;19.00;11.67;;;13.30;99.90;;;;;;793719;180;26455;-78
2024/04/13 03:25:17;;;;;;;21.50;12.57;;;13.20;99.90;;;;;;794897;179;26564;-78
2024/04/13 03:27:44;;;;;;;20.43;12.00;;;13.20;99.90;;;;;;796887;180;26496;-78
2024/04/13 03:30:11;;;;;;;19.23;12.27;;;13.20;99.90;;;;;;790630;180;26470;-79
2024/04/13 03:32:37;;;;;;;18.03;12.27;;;13.20;99.90;;;;;;792839;179;26695;-78
2024/04/13 03:35:04;;;;;;;17.67;11.07;;;13.20;99.90;;;;;;791269;179;26509;-78
2024/04/13 03:37:30;;;;;;;17.73;11.47;;;13.20;99.90;;;;;;790316;180;26488;-78
2024/04/13 03:39:57;;;;;;;19.73;11.80;;;13.10;99.90;;;;;;795287;179;26454;-77
2024/04/13 03:42:23;;;;;;;20.10;11.50;;;13.10;99.90;;;;;;795582;179;26502;-78
2024/04/13 03:44:50;;;;;;;20.13;10.90;;;13.10;99.90;;;;;;793882;179;26480;-79
2024/04/13 03:47:17;;;;;;;18.73;11.67;;;13.10;99.90;;;;;;796582;179;26452;-78
2024/04/13 03:49:43;;;;;;;19.00;11.73;;;13.00;99.90;;;;;;795664;179;26467;-78
2024/04/13 03:52:10;;;;;;;18.13;10.83;;;13.00;99.90;;;;;;792953;179;27056;-77
2024/04/13 03:54:40;;;;;;;19.03;11.40;;;13.00;99.90;;;;;;790111;179;26497;-77
2024/04/13 03:57:03;;;;;;;15.27;10.87;;;13.00;99.90;;;;;;791454;179;26982;-78
2024/04/13 03:59:30;;;;;;;15.37;11.30;;;13.00;99.90;;;;;;791350;180;27032;-77
2024/04/13 04:02:00;;;;;;;17.70;11.90;;;12.90;99.90;;;;;;790202;179;26452;-78
2024/04/13 04:04:23;;;;;;;19.57;11.77;;;12.90;99.90;;;;;;790747;179;26502;-78
2024/04/13 04:06:50;;;;;;;20.80;12.23;;;12.80;99.90;;;;;;789174;179;26469;-78
2024/04/13 04:09:16;;;;;;;15.77;11.23;;;12.80;99.90;;;;;;792223;180;26450;-78
2024/04/13 04:11:43;;;;;;;20.87;12.43;;;12.80;99.90;;;;;;789818;179;26467;-75
2024/04/13 04:14:09;;;;;;;15.43;11.40;;;12.80;99.90;;;;;;789983;179;26460;-78
2024/04/13 04:16:36;;;;;;;18.07;11.80;;;12.80;99.90;;;;;;793736;179;26469;-79
2024/04/13 04:19:04;;;;;;;19.03;11.60;;;12.70;99.90;;;;;;790218;180;26456;-77
2024/04/13 04:21:29;;;;;;;19.47;11.90;;;12.80;99.90;;;;;;794992;179;26469;-77
2024/04/13 04:23:56;;;;;;;18.73;12.07;;;12.80;99.90;;;;;;791373;179;27083;-78
2024/04/13 04:26:22;;;;;;;17.80;11.00;;;12.70;99.90;;;;;;794747;180;26476;-77
2024/04/13 04:28:49;;;;;;;23.10;12.60;;;12.70;99.90;;;;;;794922;179;27009;-79
2024/04/13 04:31:15;;;;;;;17.43;12.03;;;12.60;99.90;;;;;;790586;179;26558;-76
2024/04/13 04:33:42;;;;;;;15.30;11.27;;;12.60;99.90;;;;;;789815;180;26488;-77
2024/04/13 04:36:09;;;;;;;17.20;11.20;;;12.50;99.90;;;;;;791031;179;26523;-78
2024/04/13 04:38:36;;;;;;;24.13;12.80;;;12.60;99.90;;;;;;790463;180;26466;-78
2024/04/13 04:41:02;;;;;;;20.00;12.07;;;12.60;99.90;;;;;;792329;179;26520;-79
2024/04/13 04:43:28;;;;;;;17.87;10.53;;;12.60;99.90;;;;;;790556;179;26453;-76
2024/04/13 04:45:55;;;;;;;19.70;11.37;;;12.60;99.90;;;;;;794981;179;26494;-78
2024/04/13 04:48:22;;;;;;;15.47;11.33;;;12.60;99.90;;;;;;789979;179;26535;-78
2024/04/13 04:50:56;;;;;;;17.93;11.90;;;12.50;99.90;;;;;;790843;179;26506;-79
2024/04/13 04:53:22;;;;;;;17.03;11.93;;;12.60;99.90;;;;;;791781;180;26485;-78
2024/04/13 04:55:49;;;;;;;19.17;11.90;;;12.50;99.90;;;;;;789744;180;26468;-77
2024/04/13 04:58:17;;;;;;;17.17;11.43;;;12.70;99.90;;;;;;788582;180;26473;-78
2024/04/13 05:00:42;;;;;;;20.63;11.27;;;12.70;99.90;;;;;;792013;179;27051;-78
2024/04/13 05:03:09;;;;;;;19.70;11.00;;;12.70;99.90;;;;;;790505;179;26482;-79
2024/04/13 05:05:35;;;;;;;19.47;11.70;;;12.60;99.90;;;;;;791288;180;26472;-77
2024/04/13 05:08:02;;;;;;;15.37;10.60;;;12.70;99.90;;;;;;794058;180;26468;-77
2024/04/13 05:10:29;;;;;;;17.23;11.47;;;12.80;99.90;;;;;;795286;178;26450;-77
2024/04/13 05:12:55;;;;;;;20.73;11.77;;;12.80;99.90;;;;;;794361;179;26471;-77
2024/04/13 05:15:22;;;;;;;19.93;11.23;;;12.80;99.90;;;;;;791160;180;26479;-77
2024/04/13 05:17:48;;;;;;;20.23;11.17;;;12.80;99.90;;;;;;793868;180;26469;-78
2024/04/13 05:20:15;;;;;;;21.33;11.47;;;12.80;99.90;;;;;;794800;179;26458;-78
2024/04/13 05:22:42;;;;;;;17.93;11.40;;;12.80;99.90;;;;;;790670;179;27068;-78
2024/04/13 05:25:08;;;;;;;17.97;11.20;;;12.80;99.90;;;;;;791804;179;26481;-77
2024/04/13 05:27:35;;;;;;;15.57;10.40;;;12.90;99.90;;;;;;794257;179;26465;-79
2024/04/13 05:30:04;;;;;;;13.90;11.53;;;13.00;99.90;;;;;;800064;179;26448;-79
2024/04/13 05:32:28;;;;;;;17.10;11.00;;;13.10;99.90;;;;;;792447;180;26452;-78
2024/04/13 05:34:56;;;;;;;21.13;10.83;;;13.00;99.90;;;;;;792083;180;26473;-78
2024/04/13 05:37:22;;;;;;;15.93;10.50;;;13.10;99.90;;;;;;803592;171;27034;-78
2024/04/13 05:39:48;;;;;;;18.37;10.03;;;13.10;99.90;;;;;;803186;177;26436;-79
2024/04/13 05:42:15;;;;;;;13.30;11.10;;;13.10;99.90;;;;;;802877;177;26419;-80
2024/04/13 05:44:42;;;;;;;22.03;11.40;;;13.10;99.90;;;;;;808150;178;26453;-77
2024/04/13 05:47:08;;;;;;;20.33;11.30;;;13.10;99.90;;;;;;817163;174;27014;-78
2024/04/13 05:49:35;;;;;;;19.80;11.13;;;13.10;99.90;;;;;;801629;176;26440;-78
2024/04/13 05:52:02;;;;;;;21.80;11.93;;;13.10;99.90;;;;;;811415;175;26404;-78
2024/04/13 05:54:28;;;;;;;13.17;9.67;;;13.10;99.90;;;;;;827711;171;26374;-79
2024/04/13 05:56:55;;;;;;;17.60;12.00;;;13.10;99.90;;;;;;823676;170;26416;-78
2024/04/13 05:59:21;;;;;;;19.80;10.97;;;13.20;99.90;;;;;;824583;171;26397;-78
2024/04/13 06:01:48;;;;;;;17.93;11.33;;;13.30;99.90;;;;;;834944;171;26369;-79
2024/04/13 06:04:14;;;;;;;18.43;11.07;;;13.30;99.90;;;;;;832500;171;26539;-79
2024/04/13 06:06:41;;;;;;;15.67;10.50;;;13.40;99.90;;;;;;836388;168;26389;-78
2024/04/13 06:09:08;;;;;;;16.90;10.90;;;13.40;99.90;;;;;;805397;176;26560;-77
2024/04/13 06:11:34;;;;;;;15.93;10.70;;;13.50;99.90;;;;;;830389;171;26365;-80
2024/04/13 06:14:01;;;;;;;18.03;10.10;;;13.60;99.90;;;;;;828293;171;26932;-79
2024/04/13 06:16:28;;;;;;;18.93;10.73;;;13.70;99.90;;;;;;832198;171;26382;-78
2024/04/13 06:18:55;;;;;;;22.23;10.23;;;13.80;99.90;;;;;;836621;171;26377;-79
2024/04/13 06:21:21;;;;;;;20.37;11.20;;;13.90;99.90;;;;;;838995;171;26383;-79
2024/04/13 06:23:48;;;;;;;13.40;9.57;;;14.00;99.90;;;;;;837369;171;26382;-79
2024/04/13 06:26:15;;;;;;;16.23;10.53;;;14.20;99.90;;;;;;828307;171;26380;-76
2024/04/13 06:28:41;;;;;;;16.00;9.60;;;14.30;99.90;;;;;;831049;171;26546;-78
2024/04/13 06:31:08;;;;;;;17.20;10.67;;;14.40;99.90;;;;;;830679;171;26410;-80
2024/04/13 06:33:34;;;;;;;13.30;9.00;;;14.50;99.90;;;;;;836569;170;26437;-79
2024/04/13 06:36:01;;;;;;;16.47;9.10;;;14.60;99.90;;;;;;836377;171;26419;-77
2024/04/13 06:38:28;;;;;;;16.20;10.67;;;14.80;99.90;;;;;;827420;171;26412;-77
2024/04/13 06:40:54;;;;;;;17.70;9.27;;;14.80;99.90;;;;;;836153;170;26395;-77
2024/04/13 06:43:21;;;;;;;19.67;9.20;;;14.90;99.90;;;;;;830890;169;26377;-77
2024/04/13 06:45:47;;;;;;;13.87;9.17;;;15.00;99.90;;;;;;831566;171;26481;-77
2024/04/13 06:48:14;;;;;;;11.23;8.43;;;15.10;99.90;;;;;;832226;171;26392;-77
2024/04/13 06:50:41;;;;;;;16.83;9.77;;;15.30;99.90;;;;;;825812;171;26998;-78
2024/04/13 06:53:07;;;;;;;15.33;10.13;;;15.40;99.90;;;;;;835576;171;26419;-78
2024/04/13 06:55:34;;;;;;;18.50;8.90;;;15.50;99.90;;;;;;838210;171;26549;-77
2024/04/13 06:58:00;;;;;;;12.73;9.20;;;15.60;99.90;;;;;;829553;171;26468;-79
2024/04/13 07:00:27;;;;;;;14.90;9.27;;;15.60;99.90;;;;;;834564;170;26425;-78
2024/04/13 07:02:54;;;;;;;14.43;8.77;;;15.70;99.90;;;;;;821431;171;26981;-78
2024/04/13 07:05:20;;;;;;;18.30;9.50;;;15.60;99.90;;;;;;835348;168;26405;-79
2024/04/13 07:07:47;;;;;;;20.40;12.97;;;15.70;99.90;;;;;;825182;170;28005;-77
2024/04/13 07:10:13;;;;;;;12.90;9.50;;;15.80;99.90;;;;;;830180;171;26377;-76
2024/04/13 07:12:40;;;;;;;13.43;9.07;;;15.80;99.90;;;;;;834233;171;26378;-78
2024/04/13 07:15:07;;;;;;;15.37;9.93;;;15.70;99.90;;;;;;832097;170;26386;-78
2024/04/13 07:17:34;;;;;;;16.37;9.37;;;15.60;99.90;;;;;;838241;171;26409;-77
2024/04/13 07:20:04;;;;;;;18.63;9.20;;;15.70;99.90;;;;;;829949;170;26381;-80
2024/04/13 07:22:27;;;;;;;14.83;9.67;;;15.70;99.90;;;;;;834170;169;26562;-78
2024/04/13 07:24:53;;;;;;;17.40;9.43;;;15.80;99.90;;;;;;829317;171;26394;-78
2024/04/13 07:27:20;;;;;;;15.07;10.20;;;15.80;99.90;;;;;;831126;171;26430;-76
2024/04/13 07:29:47;;;;;;;15.27;9.33;;;15.80;99.90;;;;;;829252;171;26393;-76
2024/04/13 07:32:13;;;;;;;15.30;9.10;;;15.80;99.90;;;;;;834980;171;26392;-78
2024/04/13 07:34:41;;;;;;;17.57;9.73;;;16.00;99.90;;;;;;832806;171;26396;-79
2024/04/13 07:37:06;;;;;;;13.57;9.33;;;16.20;99.90;;;;;;835852;171;26411;-78
2024/04/13 07:39:33;;;;;;;16.33;9.10;;;16.40;99.90;;;;;;830140;171;26536;-79
2024/04/13 07:42:01;;;;;;;14.20;8.40;;;16.50;99.90;;;;;;835703;168;26399;-79
2024/04/13 07:44:26;;;;;;;15.83;9.63;;;16.70;99.90;;;;;;832178;171;26377;-78
2024/04/13 07:46:53;;;;;;;14.60;8.70;;;16.90;99.90;;;;;;830924;170;26414;-79
2024/04/13 07:49:20;;;;;;;12.13;8.83;;;17.10;99.90;;;;;;839856;171;26435;-79
2024/04/13 07:51:46;;;;;;;17.17;9.33;;;17.30;99.90;;;;;;838318;171;26382;-78
2024/04/13 07:54:13;;;;;;;14.10;9.00;;;17.30;99.90;;;;;;838804;169;26397;-78
2024/04/13 07:56:39;;;;;;;21.40;9.20;;;17.40;99.90;;;;;;835590;171;26388;-78
2024/04/13 07:59:06;;;;;;;16.40;8.77;;;17.50;99.90;;;;;;839107;171;26393;-77
2024/04/13 08:01:32;;;;;;;15.00;8.63;;;17.60;99.90;;;;;;827167;171;26432;-78
2024/04/13 08:03:59;;;;;;;17.53;9.63;;;17.70;99.90;;;;;;828990;171;26532;-78
2024/04/13 08:06:26;;;;;;;13.20;8.70;;;17.60;99.90;;;;;;825847;171;26405;-79
2024/04/13 08:08:52;;;;;;;18.77;9.40;;;17.80;99.90;;;;;;839047;170;26414;-79
2024/04/13 08:11:19;;;;;;;16.03;9.10;;;17.90;99.90;;;;;;834274;171;26932;-78
2024/04/13 08:13:46;;;;;;;13.67;9.07;;;18.10;99.90;;;;;;838341;171;26398;-78
2024/04/13 08:16:12;;;;;;;17.37;8.73;;;18.20;99.90;;;;;;830785;171;26548;-77
2024/04/13 08:18:39;;;;;;;16.37;9.23;;;18.50;99.90;;;;;;830581;170;26416;-78
2024/04/13 08:21:05;;;;;;;13.83;9.03;;;18.60;99.90;;;;;;833856;171;26396;-79
2024/04/13 08:23:32;;;;;;;17.90;10.87;;;18.70;99.90;;;;;;834925;170;26942;-78
2024/04/13 08:26:01;;;;;;;20.97;10.03;;;19.00;99.90;;;;;;831199;170;26382;-79
2024/04/13 08:28:28;;;;;;;14.57;9.13;;;18.90;99.90;;;;;;818848;173;26423;-80
2024/04/13 08:30:55;;;;;;;17.57;9.77;;;19.00;99.90;;;;;;824091;171;26368;-78
2024/04/13 08:33:22;;;;;;;20.17;9.27;;;19.20;99.90;;;;;;828990;171;26563;-77
2024/04/13 08:35:48;;;;;;;16.37;9.20;;;19.20;99.90;;;;;;835438;171;26965;-78
2024/04/13 08:38:15;;;;;;;13.50;8.77;;;19.20;99.90;;;;;;837510;171;26543;-79
2024/04/13 08:40:41;;;;;;;18.17;9.17;;;19.40;99.90;;;;;;837920;171;26399;-79
2024/04/13 08:43:08;;;;;;;18.83;9.87;;;19.20;99.90;;;;;;834493;171;26558;-77
2024/04/13 08:45:36;;;;;;;17.20;9.37;;;19.20;99.90;;;;;;829872;171;27419;-78
2024/04/13 08:48:03;;;;;;;18.53;9.07;;;19.50;99.90;;;;;;828813;171;26451;-79
2024/04/13 08:50:29;;;;;;;15.17;9.00;;;19.70;99.90;;;;;;825992;168;26443;-80
2024/04/13 08:52:56;;;;;;;16.80;8.97;;;19.70;99.90;;;;;;829571;169;26430;-80
2024/04/13 08:55:23;;;;;;;14.47;8.87;;;20.00;99.90;;;;;;828807;171;26402;-79
2024/04/13 08:57:49;;;;;;;15.60;8.73;;;20.30;99.90;;;;;;835149;171;26410;-82
2024/04/13 09:00:19;;;;;;;22.57;10.13;;;20.30;99.90;;;;;;835681;171;26421;-81
2024/04/13 09:02:44;;;;;;;17.30;9.97;;;20.60;99.90;;;;;;838718;171;26524;-81
2024/04/13 09:05:11;;;;;;;14.70;8.40;;;20.70;99.90;;;;;;834113;170;26393;-80
2024/04/13 09:07:38;;;;;;;14.63;8.70;;;20.60;99.90;;;;;;835259;170;26404;-81
2024/04/13 09:10:05;;;;;;;13.77;8.80;;;20.70;99.90;;;;;;835892;171;26390;-81
2024/04/13 09:12:31;;;;;;;16.93;9.00;;;20.70;99.90;;;;;;829255;171;26557;-79
2024/04/13 09:15:00;;;;;;;16.63;8.30;;;20.90;99.90;;;;;;830606;171;26531;-79
2024/04/13 09:17:25;;;;;;;14.97;8.43;;;21.00;99.90;;;;;;832938;171;26547;-79
2024/04/13 09:19:51;;;;;;;17.93;8.50;;;21.20;99.90;;;;;;832714;171;26385;-80
2024/04/13 09:22:18;;;;;;;17.77;8.57;;;21.50;99.90;;;;;;840425;171;26386;-79
2024/04/13 09:24:44;;;;;;;14.80;8.43;;;21.20;99.90;;;;;;826961;171;26379;-79
2024/04/13 09:27:21;;;;;;;18.10;8.80;;;20.80;99.90;;;;;;831111;171;26972;-79
2024/04/13 09:29:47;;;;;;;14.40;8.40;;;21.20;99.90;;;;;;834193;171;26431;-79
2024/04/13 09:32:22;;;;;;;14.77;8.00;;;21.50;99.90;;;;;;836260;170;26386;-79
2024/04/13 09:34:48;;;;;;;14.57;8.00;;;21.70;99.90;;;;;;837484;171;26396;-79
2024/04/13 09:37:15;;;;;;;14.03;7.43;;;21.70;99.90;;;;;;838260;170;26948;-76
2024/04/13 09:39:43;;;;;;;10.33;6.23;;;22.00;99.90;;;;;;824678;171;26435;-78
2024/04/13 09:42:09;;;;;;;12.37;6.17;;;22.00;99.90;;;;;;830398;171;26380;-78
2024/04/13 09:44:35;;;;;;;28.40;14.67;;;22.00;99.90;;;;;;833423;171;26558;-79
2024/04/13 09:47:02;;;;;;;15.90;8.30;;;22.20;99.90;;;;;;828870;170;26412;-78
2024/04/13 09:49:29;;;;;;;17.73;9.60;;;22.20;99.90;;;;;;826434;171;26395;-78
2024/04/13 09:51:56;;;;;;;29.90;17.17;;;22.30;99.90;;;;;;836108;171;26479;-78
2024/04/13 09:54:26;;;;;;;11.03;5.47;;;22.50;99.50;;;;;;831471;171;26409;-79
2024/04/13 09:56:49;;;;;;;10.77;5.13;;;22.70;98.80;;;;;;831406;171;26407;-79
2024/04/13 09:59:17;;;;;;;12.20;6.50;;;22.90;99.10;;;;;;827859;171;26437;-78
2024/04/13 10:01:44;;;;;;;10.77;6.43;;;23.10;98.50;;;;;;830115;171;26539;-78
2024/04/13 10:04:10;;;;;;;8.63;5.00;;;23.10;98.20;;;;;;832644;171;26380;-79
2024/04/13 10:06:37;;;;;;;11.37;5.40;;;22.60;98.10;;;;;;832291;171;26400;-79
2024/04/13 10:09:03;;;;;;;9.93;4.80;;;22.50;98.80;;;;;;838164;169;26970;-79
2024/04/13 10:11:30;;;;;;;8.93;5.00;;;22.50;99.00;;;;;;838218;171;26413;-79
2024/04/13 10:13:56;;;;;;;10.23;5.10;;;22.60;99.10;;;;;;823124;171;26388;-78
2024/04/13 10:16:23;;;;;;;9.37;4.83;;;22.70;98.10;;;;;;826104;171;26407;-76
2024/04/13 10:18:49;;;;;;;9.60;4.63;;;22.60;98.60;;;;;;830917;169;26423;-78
2024/04/13 10:21:16;;;;;;;9.63;4.77;;;22.60;98.10;;;;;;833539;171;26396;-78
2024/04/13 10:23:44;;;;;;;7.53;4.90;;;22.60;98.70;;;;;;832630;171;26387;-78
2024/04/13 10:26:09;;;;;;;26.03;14.33;;;22.80;97.90;;;;;;833329;171;26864;-78
2024/04/13 10:28:37;;;;;;;11.53;5.73;;;22.80;97.10;;;;;;826023;171;27023;-78
2024/04/13 10:31:03;;;;;;;8.77;4.70;;;22.80;97.30;;;;;;835656;171;26397;-80
2024/04/13 10:33:30;;;;;;;6.40;4.47;;;22.70;97.60;;;;;;827362;171;26380;-79
2024/04/13 10:36:00;;;;;;;9.07;4.47;;;22.70;98.20;;;;;;829938;171;26414;-78
2024/04/13 10:38:28;;;;;;;8.97;4.83;;;23.20;97.60;;;;;;830725;171;26416;-78
2024/04/13 10:40:54;;;;;;;11.33;5.20;;;24.30;94.70;;;;;;833554;171;26405;-78
2024/04/13 10:43:21;;;;;;;9.60;7.13;;;24.90;93.80;;;;;;832908;171;26992;-78
2024/04/13 10:45:52;;;;;;;11.60;5.10;;;25.80;90.00;;;;;;832087;171;26405;-79
2024/04/13 10:48:19;;;;;;;7.20;4.83;;;25.40;85.40;;;;;;836688;171;26401;-79
2024/04/13 10:50:45;;;;;;;12.50;6.63;;;25.10;88.90;;;;;;835146;171;26402;-79
2024/04/13 10:53:12;;;;;;;10.73;6.53;;;24.70;90.40;;;;;;823453;171;26367;-78
2024/04/13 10:55:38;;;;;;;6.37;3.70;;;24.90;88.50;;;;;;830508;171;26942;-79
2024/04/13 10:58:05;;;;;;;14.97;8.60;;;25.20;87.50;;;;;;831520;171;26404;-79
2024/04/13 11:00:32;;;;;;;13.73;7.87;;;25.70;83.90;;;;;;821784;171;26550;-78
2024/04/13 11:02:58;;;;;;;19.97;10.70;;;25.20;79.20;;;;;;827282;171;26376;-77
2024/04/13 11:05:25;;;;;;;19.50;13.13;;;25.90;77.50;;;;;;819764;171;26514;-78
2024/04/13 11:07:51;;;;;;;16.63;10.47;;;26.00;82.40;;;;;;831505;171;26425;-79
2024/04/13 11:10:18;;;;;;;16.40;8.97;;;26.30;71.50;;;;;;835494;170;26404;-78
2024/04/13 11:12:45;;;;;;;15.43;7.43;;;26.80;67.20;;;;;;838324;171;26402;-77
2024/04/13 11:15:11;;;;;;;22.23;12.93;;;26.50;66.70;;;;;;838220;171;27025;-77
2024/04/13 11:17:38;;;;;;;15.67;11.53;;;26.50;67.70;;;;;;837746;170;27013;-78
2024/04/13 11:20:06;;;;;;;34.83;23.73;;;26.60;65.40;;;;;;825962;171;26508;-80
2024/04/13 11:22:32;;;;;;;17.30;10.43;;;26.90;63.70;;;;;;830628;171;26388;-79
2024/04/13 11:24:59;;;;;;;16.37;10.03;;;26.00;64.60;;;;;;828573;171;26521;-79
2024/04/13 11:27:25;;;;;;;12.00;8.40;;;26.40;65.30;;;;;;838673;170;26453;-79
2024/04/13 11:29:52;;;;;;;20.50;12.87;;;26.90;62.10;;;;;;840290;169;26401;-79
2024/04/13 11:32:18;;;;;;;54.00;33.33;;;26.70;65.20;;;;;;831495;171;26397;-80
2024/04/13 11:34:45;;;;;;;10.77;4.50;;;27.10;63.20;;;;;;841434;171;26380;-80
2024/04/13 11:37:13;;;;;;;24.40;13.43;;;27.80;60.40;;;;;;840102;170;26449;-77
2024/04/13 11:39:39;;;;;;;14.70;9.93;;;27.30;60.30;;;;;;831508;171;26377;-79
2024/04/13 11:42:07;;;;;;;19.90;12.20;;;27.70;60.00;;;;;;841554;171;26384;-81
2024/04/13 11:44:33;;;;;;;52.77;33.17;;;28.30;58.60;;;;;;819062;175;26977;-77
2024/04/13 11:47:00;;;;;;;107.47;64.97;;;27.60;57.90;;;;;;830977;171;26411;-79
2024/04/13 11:49:27;;;;;;;27.33;18.23;;;26.90;63.10;;;;;;813353;175;26408;-78
2024/04/13 11:51:53;;;;;;;12.87;6.00;;;26.50;66.00;;;;;;831475;171;26405;-80
2024/04/13 11:54:20;;;;;;;23.90;13.77;;;26.70;66.40;;;;;;836954;171;26378;-78
2024/04/13 11:56:46;;;;;;;17.20;8.40;;;28.00;59.90;;;;;;831668;170;26910;-80
2024/04/13 11:59:13;;;;;;;7.73;4.50;;;28.20;58.70;;;;;;837181;169;26415;-79
2024/04/13 12:01:40;;;;;;;7.53;5.13;;;28.10;58.70;;;;;;830398;171;26449;-79
2024/04/13 12:04:07;;;;;;;33.40;19.13;;;27.80;57.10;;;;;;836918;171;26393;-78
2024/04/13 12:06:33;;;;;;;7.30;4.47;;;27.90;56.40;;;;;;831951;171;26948;-78
2024/04/13 12:09:00;;;;;;;9.83;4.47;;;27.10;57.40;;;;;;836860;171;26380;-80
2024/04/13 12:11:30;;;;;;;35.90;20.80;;;26.60;59.70;;;;;;830566;171;26376;-79
2024/04/13 12:13:56;;;;;;;5.37;3.87;;;27.10;57.90;;;;;;836693;171;26386;-79
2024/04/13 12:16:22;;;;;;;5.70;3.70;;;28.00;56.30;;;;;;823963;171;26971;-80
2024/04/13 12:18:49;;;;;;;6.97;3.50;;;27.70;55.30;;;;;;824124;171;26400;-79
2024/04/13 12:21:16;;;;;;;11.63;7.50;;;27.10;55.60;;;;;;820571;171;26523;-80
2024/04/13 12:23:42;;;;;;;9.03;5.10;;;27.50;54.80;;;;;;835074;171;26536;-79
2024/04/13 12:26:09;;;;;;;21.70;14.40;;;27.80;53.30;;;;;;837520;171;26398;-79
2024/04/13 12:28:36;;;;;;;6.77;2.93;;;27.30;54.40;;;;;;825645;171;26422;-80
2024/04/13 12:31:02;;;;;;;5.23;3.10;;;27.30;54.90;;;;;;829027;171;26412;-80